createdAt,value
2023-09-25T00:00:35.858Z,96.94
2023-09-25T00:03:04.952Z,96.28
2023-09-25T00:05:31.890Z,95.82
2023-09-25T00:07:58.945Z,95.79
2023-09-25T00:10:25.791Z,96.02
2023-09-25T00:12:52.596Z,95.78
2023-09-25T00:15:19.680Z,95.72
2023-09-25T00:17:46.521Z,95.41
2023-09-25T00:20:13.787Z,95.59
2023-09-25T00:22:41.115Z,95.44
2023-09-25T00:25:08.556Z,95.80
2023-09-25T00:27:35.737Z,95.38
2023-09-25T00:30:06.882Z,95.59
2023-09-25T00:32:34.361Z,95.33
2023-09-25T00:35:01.201Z,95.69
2023-09-25T00:37:28.345Z,95.47
2023-09-25T00:39:56.149Z,95.49
2023-09-25T00:42:22.933Z,95.42
2023-09-25T00:44:49.679Z,95.80
2023-09-25T00:47:16.417Z,95.77
2023-09-25T00:49:43.063Z,95.73
2023-09-25T00:52:10.427Z,96.15
2023-09-25T00:54:41.850Z,96.06
2023-09-25T00:57:10.244Z,95.36
2023-09-25T00:59:40.679Z,95.52
2023-09-25T01:02:07.662Z,96.14
2023-09-25T01:04:34.748Z,95.89
2023-09-25T01:07:02.139Z,95.93
2023-09-25T01:09:29.116Z,96.00
2023-09-25T01:11:55.918Z,95.56
2023-09-25T01:14:22.675Z,96.08
2023-09-25T01:16:49.546Z,95.20
2023-09-25T01:19:16.277Z,95.38
2023-09-25T01:21:49.093Z,95.86
2023-09-25T01:24:16.030Z,95.63
2023-09-25T01:26:42.697Z,96.00
2023-09-25T01:29:09.416Z,95.86
2023-09-25T01:31:36.046Z,95.52
2023-09-25T01:34:02.894Z,95.16
2023-09-25T01:36:29.590Z,95.33
2023-09-25T01:38:56.360Z,95.48
2023-09-25T01:41:23.403Z,95.07
2023-09-25T01:43:50.018Z,94.76
2023-09-25T01:46:16.663Z,94.29
2023-09-25T01:48:43.355Z,95.32
2023-09-25T01:51:11.594Z,95.13
2023-09-25T01:53:38.820Z,94.45
2023-09-25T01:56:15.360Z,94.53
2023-09-25T01:58:43.619Z,94.55
2023-09-25T02:01:10.883Z,94.29
2023-09-25T02:03:38.074Z,94.25
2023-09-25T02:06:05.852Z,93.98
2023-09-25T02:08:32.801Z,94.11
2023-09-25T02:10:59.908Z,93.93
2023-09-25T02:13:27.184Z,93.70
2023-09-25T02:15:54.995Z,94.07
2023-09-25T02:18:22.265Z,94.01
2023-09-25T02:20:48.950Z,93.71
2023-09-25T02:23:15.605Z,93.55
2023-09-25T02:25:42.243Z,93.37
2023-09-25T02:28:09.543Z,93.17
2023-09-25T02:30:36.258Z,92.96
2023-09-25T02:33:04.103Z,93.88
2023-09-25T02:35:30.874Z,93.57
2023-09-25T02:37:57.507Z,93.53
2023-09-25T02:40:24.126Z,93.10
2023-09-25T02:42:51.391Z,93.42
2023-09-25T02:45:18.652Z,92.50
2023-09-25T02:47:45.776Z,92.78
2023-09-25T02:50:12.971Z,92.02
2023-09-25T02:52:39.706Z,92.34
2023-09-25T02:55:06.652Z,92.40
2023-09-25T02:57:33.350Z,92.34
2023-09-25T03:00:00.044Z,92.04
2023-09-25T03:02:27.441Z,91.60
2023-09-25T03:04:55.205Z,92.07
2023-09-25T03:07:22.201Z,91.82
2023-09-25T03:09:49.012Z,91.33
2023-09-25T03:12:15.755Z,91.18
2023-09-25T03:14:42.422Z,90.77
2023-09-25T03:17:09.062Z,90.74
2023-09-25T03:19:36.867Z,91.09
2023-09-25T03:22:06.541Z,91.38
2023-09-25T03:24:33.314Z,91.54
2023-09-25T03:27:00.101Z,91.08
2023-09-25T03:29:26.824Z,91.42
2023-09-25T03:31:53.493Z,91.00
2023-09-25T03:34:21.594Z,91.26
2023-09-25T03:36:48.392Z,90.37
2023-09-25T03:39:15.636Z,88.92
2023-09-25T03:41:42.320Z,89.61
2023-09-25T03:44:09.021Z,90.29
2023-09-25T03:46:35.758Z,89.95
2023-09-25T03:49:07.192Z,89.53
2023-09-25T03:51:34.549Z,88.89
2023-09-25T03:54:01.625Z,89.26
2023-09-25T03:56:30.477Z,88.92
2023-09-25T03:58:57.333Z,87.79
2023-09-25T04:01:24.144Z,87.50
2023-09-25T04:03:51.282Z,87.27
2023-09-25T04:06:19.638Z,86.64
2023-09-25T04:08:46.621Z,86.38
2023-09-25T04:11:13.337Z,86.57
2023-09-25T04:13:42.676Z,85.92
2023-09-25T04:16:13.393Z,85.56
2023-09-25T04:18:40.999Z,84.63
2023-09-25T04:21:07.930Z,84.59
2023-09-25T04:23:34.791Z,83.50
2023-09-25T04:26:02.108Z,83.45
2023-09-25T04:28:33.780Z,83.26
2023-09-25T04:31:05.770Z,82.43
2023-09-25T04:33:34.084Z,83.39
2023-09-25T04:36:02.515Z,82.23
2023-09-25T04:38:32.859Z,81.71
2023-09-25T04:40:59.502Z,82.65
2023-09-25T04:43:26.100Z,82.17
2023-09-25T04:45:53.492Z,82.33
2023-09-25T04:48:20.753Z,82.61
2023-09-25T04:50:47.573Z,82.78
2023-09-25T04:53:14.909Z,82.74
2023-09-25T04:55:42.164Z,83.05
2023-09-25T04:58:09.850Z,84.11
2023-09-25T05:00:36.699Z,83.91
2023-09-25T05:03:03.670Z,83.56
2023-09-25T05:05:31.227Z,83.79
2023-09-25T05:07:58.228Z,84.62
2023-09-25T05:10:27.510Z,83.52
2023-09-25T05:12:55.878Z,84.34
2023-09-25T05:15:23.344Z,84.05
2023-09-25T05:17:50.451Z,84.02
2023-09-25T05:20:19.885Z,84.25
2023-09-25T05:22:52.226Z,83.91
2023-09-25T05:25:20.318Z,83.31
2023-09-25T05:27:52.590Z,83.00
2023-09-25T05:30:20.343Z,83.38
2023-09-25T05:32:51.758Z,83.80
2023-09-25T05:35:20.358Z,83.57
2023-09-25T05:37:49.518Z,83.24
2023-09-25T05:40:18.167Z,83.25
2023-09-25T05:42:47.090Z,83.10
2023-09-25T05:45:15.333Z,82.65
2023-09-25T05:47:42.920Z,82.10
2023-09-25T05:50:10.143Z,82.22
2023-09-25T05:52:38.278Z,81.94
2023-09-25T05:55:06.514Z,82.05
2023-09-25T05:57:33.689Z,81.88
2023-09-25T06:00:13.798Z,80.70
2023-09-25T06:02:42.154Z,80.67
2023-09-25T06:05:10.362Z,81.00
2023-09-25T06:07:37.034Z,81.09
2023-09-25T06:10:05.459Z,81.77
2023-09-25T06:12:32.829Z,80.37
2023-09-25T06:14:59.579Z,80.06
2023-09-25T06:17:28.214Z,80.50
2023-09-25T06:19:55.705Z,79.29
2023-09-25T06:22:22.958Z,79.80
2023-09-25T06:24:52.484Z,80.86
2023-09-25T06:27:19.293Z,79.51
2023-09-25T06:29:46.005Z,79.15
2023-09-25T06:32:12.928Z,78.46
2023-09-25T06:34:40.645Z,78.56
2023-09-25T06:37:07.911Z,77.06
2023-09-25T06:39:35.022Z,77.60
2023-09-25T06:42:01.767Z,75.87
2023-09-25T06:44:28.679Z,76.51
2023-09-25T06:46:55.452Z,75.66
2023-09-25T06:49:23.529Z,74.55
2023-09-25T06:51:50.535Z,75.15
2023-09-25T06:54:17.454Z,73.29
2023-09-25T06:56:44.185Z,72.96
2023-09-25T06:59:10.784Z,73.16
2023-09-25T07:01:37.553Z,73.78
2023-09-25T07:04:04.493Z,71.08
2023-09-25T07:06:31.547Z,71.64
2023-09-25T07:08:58.591Z,72.75
2023-09-25T07:11:25.273Z,71.20
2023-09-25T07:13:51.945Z,70.28
2023-09-25T07:16:18.724Z,69.30
2023-09-25T07:18:47.660Z,68.42
2023-09-25T07:21:16.696Z,67.04
2023-09-25T07:23:43.537Z,66.83
2023-09-25T07:26:10.558Z,66.25
2023-09-25T07:28:38.083Z,66.59
2023-09-25T07:31:07.011Z,65.29
2023-09-25T07:33:36.000Z,61.61
2023-09-25T07:36:06.778Z,60.47
2023-09-25T07:38:34.800Z,60.10
2023-09-25T07:41:02.924Z,61.90
2023-09-25T07:46:02.729Z,61.02
2023-09-25T07:48:32.006Z,59.68
2023-09-25T07:50:59.845Z,59.47
2023-09-25T07:53:29.534Z,59.20
2023-09-25T07:55:56.466Z,57.91
2023-09-25T07:58:23.515Z,59.10
2023-09-25T08:00:52.054Z,59.11
2023-09-25T08:03:23.613Z,57.19
2023-09-25T08:05:50.654Z,55.59
2023-09-25T08:08:17.492Z,54.39
2023-09-25T08:10:46.749Z,54.28
2023-09-25T08:13:15.825Z,54.33
2023-09-25T08:15:43.094Z,53.84
2023-09-25T08:18:09.875Z,53.23
2023-09-25T08:20:36.989Z,54.34
2023-09-25T08:23:04.278Z,52.40
2023-09-25T08:25:31.855Z,52.29
2023-09-25T08:27:58.946Z,52.25
2023-09-25T08:30:25.951Z,51.89
2023-09-25T08:32:54.937Z,52.71
2023-09-25T08:35:22.000Z,51.24
2023-09-25T08:37:49.145Z,51.38
2023-09-25T08:40:16.383Z,51.67
2023-09-25T08:42:44.284Z,51.66
2023-09-25T08:45:11.209Z,50.67
2023-09-25T08:47:40.103Z,49.82
2023-09-25T08:50:09.926Z,49.91
2023-09-25T08:52:37.089Z,50.38
2023-09-25T08:55:05.432Z,49.95
2023-09-25T08:57:32.266Z,49.68
2023-09-25T09:00:05.411Z,48.97
2023-09-25T09:02:32.128Z,50.60
2023-09-25T09:04:59.703Z,49.53
2023-09-25T09:07:26.896Z,46.95
2023-09-25T09:09:53.627Z,48.25
2023-09-25T09:12:20.396Z,47.21
2023-09-25T09:14:47.659Z,46.44
2023-09-25T09:17:14.415Z,45.83
2023-09-25T09:19:47.111Z,46.23
2023-09-25T09:22:18.437Z,46.85
2023-09-25T09:24:46.120Z,47.08
2023-09-25T09:27:15.533Z,46.97
2023-09-25T09:29:44.619Z,46.28
2023-09-25T09:32:12.840Z,46.14
2023-09-25T09:34:42.925Z,45.38
2023-09-25T09:37:10.118Z,43.65
2023-09-25T09:39:38.114Z,44.50
2023-09-25T09:42:09.548Z,41.50
2023-09-25T09:44:37.136Z,42.51
2023-09-25T09:47:06.792Z,42.48
2023-09-25T09:49:36.976Z,42.46
2023-09-25T09:52:05.102Z,42.22
2023-09-25T09:54:36.631Z,42.94
2023-09-25T09:57:04.025Z,41.88
2023-09-25T09:59:30.757Z,43.49
2023-09-25T10:01:58.945Z,40.76
2023-09-25T10:04:27.897Z,40.29
2023-09-25T10:07:00.824Z,40.92
2023-09-25T10:09:28.517Z,41.10
2023-09-25T10:11:57.187Z,39.66
2023-09-25T10:14:25.704Z,40.07
2023-09-25T10:17:04.852Z,41.15
2023-09-25T10:19:54.296Z,42.29
2023-09-25T10:22:23.667Z,41.77
2023-09-25T10:25:05.728Z,41.19
2023-09-25T10:27:33.405Z,41.40
2023-09-25T10:30:15.591Z,40.10
2023-09-25T10:32:50.450Z,40.51
2023-09-25T10:35:53.362Z,39.93
2023-09-25T10:38:31.849Z,39.29
2023-09-25T10:41:05.521Z,39.46
2023-09-25T10:43:33.005Z,41.43
2023-09-25T10:46:00.277Z,40.03
2023-09-25T10:48:31.047Z,39.28
2023-09-25T10:50:57.788Z,39.49
2023-09-25T10:53:24.470Z,38.99
2023-09-25T10:55:51.166Z,37.72
2023-09-25T10:58:19.286Z,38.14
2023-09-25T11:00:48.010Z,38.59
2023-09-25T11:03:14.927Z,38.03
2023-09-25T11:05:41.986Z,37.63
2023-09-25T11:08:16.793Z,38.54
2023-09-25T11:10:44.796Z,38.81
2023-09-25T11:13:12.845Z,38.82
2023-09-25T11:15:41.325Z,38.79
2023-09-25T11:18:09.876Z,38.08
2023-09-25T11:20:38.984Z,36.99
2023-09-25T11:23:20.145Z,37.80
2023-09-25T11:25:52.653Z,37.16
2023-09-25T11:28:24.540Z,37.31
2023-09-25T11:30:52.734Z,37.46
2023-09-25T11:33:21.789Z,37.08
2023-09-25T11:35:53.895Z,37.93
2023-09-25T11:38:24.786Z,38.84
2023-09-25T11:40:53.933Z,38.24
2023-09-25T11:43:21.197Z,37.88
2023-09-25T11:45:49.592Z,37.04
2023-09-25T11:48:19.532Z,34.53
2023-09-25T11:50:48.015Z,33.48
2023-09-25T11:53:14.896Z,32.15
2023-09-25T11:55:41.583Z,31.96
2023-09-25T11:58:10.379Z,32.94
2023-09-25T12:00:37.991Z,35.24
2023-09-25T12:03:09.630Z,35.62
2023-09-25T12:05:37.378Z,36.24
2023-09-25T12:08:07.954Z,35.64
2023-09-25T12:10:40.697Z,35.69
2023-09-25T12:13:08.634Z,36.36
2023-09-25T12:15:35.885Z,37.25
2023-09-25T12:18:04.742Z,37.83
2023-09-25T12:20:31.643Z,38.92
2023-09-25T12:22:58.294Z,38.93
2023-09-25T12:25:26.153Z,39.89
2023-09-25T12:27:53.794Z,40.35
2023-09-25T12:30:21.078Z,38.55
2023-09-25T12:32:49.186Z,37.63
2023-09-25T12:35:17.667Z,36.85
2023-09-25T12:37:45.143Z,36.97
2023-09-25T12:40:14.413Z,35.49
2023-09-25T12:42:54.071Z,34.12
2023-09-25T12:45:22.778Z,33.53
2023-09-25T12:47:49.996Z,32.34
2023-09-25T12:50:16.669Z,33.57
2023-09-25T12:52:43.346Z,35.10
2023-09-25T12:55:10.421Z,35.79
2023-09-25T12:57:37.398Z,36.55
2023-09-25T13:00:06.162Z,37.62
2023-09-25T13:02:33.359Z,38.04
2023-09-25T13:05:00.241Z,38.71
2023-09-25T13:07:27.067Z,39.90
2023-09-25T13:09:53.809Z,40.96
2023-09-25T13:12:20.544Z,41.70
2023-09-25T13:14:47.221Z,41.63
2023-09-25T13:17:14.032Z,40.57
2023-09-25T13:19:43.420Z,42.31
2023-09-25T13:22:28.899Z,42.04
2023-09-25T13:25:00.221Z,42.41
2023-09-25T13:27:28.225Z,42.68
2023-09-25T13:29:54.815Z,42.17
2023-09-25T13:32:21.604Z,42.43
2023-09-25T13:34:48.359Z,41.75
2023-09-25T13:37:15.019Z,41.89
2023-09-25T13:39:41.762Z,41.88
2023-09-25T13:42:08.396Z,41.91
2023-09-25T13:44:36.036Z,42.34
2023-09-25T13:47:03.156Z,42.74
2023-09-25T13:49:30.240Z,43.44
2023-09-25T13:51:58.208Z,42.07
2023-09-25T13:54:24.984Z,43.15
2023-09-25T13:56:51.791Z,42.53
2023-09-25T13:59:18.975Z,41.96
2023-09-25T14:01:48.694Z,42.33
2023-09-25T14:04:17.190Z,42.17
2023-09-25T14:06:45.873Z,42.37
2023-09-25T14:09:13.549Z,41.62
2023-09-25T14:11:40.784Z,43.20
2023-09-25T14:14:09.545Z,42.41
2023-09-25T14:16:36.784Z,42.39
2023-09-25T14:19:05.377Z,42.59
2023-09-25T14:21:32.249Z,43.23
2023-09-25T14:23:59.106Z,43.34
2023-09-25T14:26:25.848Z,43.49
2023-09-25T14:28:53.142Z,43.72
2023-09-25T14:31:19.803Z,44.99
2023-09-25T14:33:46.614Z,44.88
2023-09-25T14:36:13.414Z,45.09
2023-09-25T14:38:40.413Z,46.02
2023-09-25T14:41:07.299Z,45.46
2023-09-25T14:43:35.225Z,45.34
2023-09-25T14:46:02.171Z,45.41
2023-09-25T14:48:29.290Z,45.52
2023-09-25T14:50:57.678Z,46.43
2023-09-25T14:53:24.548Z,46.56
2023-09-25T14:55:57.479Z,46.88
2023-09-25T14:58:24.625Z,47.40
2023-09-25T15:01:00.882Z,47.60
2023-09-25T15:03:28.711Z,47.16
2023-09-25T15:05:55.821Z,45.26
2023-09-25T15:08:26.804Z,41.60
2023-09-25T15:10:54.763Z,40.90
2023-09-25T15:13:22.061Z,39.12
2023-09-25T15:15:51.956Z,38.69
2023-09-25T15:18:19.191Z,37.02
2023-09-25T15:20:45.898Z,36.47
2023-09-25T15:23:12.632Z,37.48
2023-09-25T15:25:39.367Z,36.36
2023-09-25T15:28:06.947Z,36.42
2023-09-25T15:30:34.006Z,36.90
2023-09-25T15:33:00.850Z,36.76
2023-09-25T15:35:28.092Z,36.76
2023-09-25T15:37:55.026Z,37.65
2023-09-25T15:40:24.440Z,38.21
2023-09-25T15:42:52.737Z,39.20
2023-09-25T15:45:20.336Z,38.25
2023-09-25T15:47:47.309Z,39.03
2023-09-25T15:50:14.321Z,40.05
2023-09-25T15:52:41.038Z,39.66
2023-09-25T15:55:08.193Z,39.29
2023-09-25T15:57:35.063Z,39.04
2023-09-25T16:00:01.905Z,39.89
2023-09-25T16:02:28.595Z,40.35
2023-09-25T16:04:55.494Z,40.01
2023-09-25T16:07:22.271Z,40.59
2023-09-25T16:09:48.903Z,40.25
2023-09-25T16:12:15.640Z,41.41
2023-09-25T16:14:42.493Z,41.61
2023-09-25T16:17:11.806Z,41.49
2023-09-25T16:19:38.668Z,42.04
2023-09-25T16:22:05.400Z,41.73
2023-09-25T16:24:32.121Z,42.69
2023-09-25T16:26:59.125Z,43.61
2023-09-25T16:29:25.930Z,43.50
2023-09-25T16:31:52.721Z,43.25
2023-09-25T16:34:19.433Z,43.34
2023-09-25T16:36:46.248Z,43.74
2023-09-25T16:39:13.448Z,43.20
2023-09-25T16:41:41.394Z,43.38
2023-09-25T16:44:08.081Z,43.38
2023-09-25T16:46:35.351Z,43.90
2023-09-25T16:49:02.850Z,43.69
2023-09-25T16:51:29.751Z,43.80
2023-09-25T16:53:56.428Z,43.70
2023-09-25T16:56:23.564Z,44.20
2023-09-25T16:58:50.268Z,44.38
2023-09-25T17:01:17.211Z,44.93
2023-09-25T17:03:44.182Z,44.49
2023-09-25T17:06:11.137Z,45.35
2023-09-25T17:08:38.100Z,44.48
2023-09-25T17:11:04.789Z,45.06
2023-09-25T17:13:31.497Z,45.18
2023-09-25T17:15:59.083Z,45.62
2023-09-25T17:18:25.936Z,45.33
2023-09-25T17:20:53.379Z,45.20
2023-09-25T17:23:21.027Z,44.94
2023-09-25T17:25:49.182Z,45.25
2023-09-25T17:28:15.977Z,45.28
2023-09-25T17:30:54.941Z,45.85
2023-09-25T17:33:29.787Z,45.88
2023-09-25T17:35:56.415Z,45.93
2023-09-25T17:38:24.026Z,46.04
2023-09-25T17:40:51.872Z,45.91
2023-09-25T17:43:19.237Z,45.53
2023-09-25T17:45:46.044Z,46.03
2023-09-25T17:48:12.873Z,46.04
2023-09-25T17:50:39.464Z,46.65
2023-09-25T17:53:06.185Z,45.40
2023-09-25T17:55:32.803Z,45.47
2023-09-25T17:57:59.438Z,46.58
2023-09-25T18:00:26.226Z,46.05
2023-09-25T18:02:52.929Z,45.60
2023-09-25T18:05:19.737Z,46.51
2023-09-25T18:07:46.596Z,46.11
2023-09-25T18:10:13.288Z,46.56
2023-09-25T18:12:42.948Z,46.43
2023-09-25T18:15:11.645Z,46.19
2023-09-25T18:17:38.451Z,46.66
2023-09-25T18:20:05.755Z,46.77
2023-09-25T18:22:33.624Z,47.32
2023-09-25T18:25:01.674Z,47.79
2023-09-25T18:27:30.956Z,46.74
2023-09-25T18:29:57.796Z,47.29
2023-09-25T18:32:24.523Z,48.35
2023-09-25T18:34:51.228Z,47.80
2023-09-25T18:37:17.895Z,48.16
2023-09-25T18:39:44.500Z,47.54
2023-09-25T18:42:11.372Z,48.54
2023-09-25T18:44:38.643Z,49.38
2023-09-25T18:47:05.543Z,49.16
2023-09-25T18:49:32.198Z,48.87
2023-09-25T18:51:58.919Z,49.36
2023-09-25T18:54:26.222Z,49.75
2023-09-25T18:56:54.169Z,49.29
2023-09-25T18:59:20.941Z,49.37
2023-09-25T19:01:47.647Z,49.89
2023-09-25T19:04:14.560Z,50.56
2023-09-25T19:06:41.282Z,50.32
2023-09-25T19:09:08.138Z,51.24
2023-09-25T19:11:34.893Z,51.31
2023-09-25T19:14:01.579Z,51.58
2023-09-25T19:16:28.782Z,52.47
2023-09-25T19:19:00.038Z,53.27
2023-09-25T19:21:29.845Z,53.29
2023-09-25T19:23:57.562Z,54.05
2023-09-25T19:26:27.064Z,54.19
2023-09-25T19:28:55.972Z,54.55
2023-09-25T19:31:38.182Z,54.12
2023-09-25T19:34:08.020Z,53.40
2023-09-25T19:36:36.787Z,53.74
2023-09-25T19:39:03.847Z,53.31
2023-09-25T19:41:30.568Z,50.67
2023-09-25T19:43:57.276Z,52.46
2023-09-25T19:46:24.074Z,51.95
2023-09-25T19:48:51.158Z,51.87
2023-09-25T19:51:17.932Z,50.38
2023-09-25T19:53:44.630Z,50.66
2023-09-25T19:56:11.448Z,49.31
2023-09-25T19:58:38.079Z,49.60
2023-09-25T20:01:12.025Z,48.19
2023-09-25T20:03:39.130Z,47.81
2023-09-25T20:06:06.289Z,47.64
2023-09-25T20:08:33.309Z,45.23
2023-09-25T20:11:00.836Z,44.87
2023-09-25T20:13:27.547Z,45.43
2023-09-25T20:15:54.742Z,45.22
2023-09-25T20:18:22.540Z,45.86
2023-09-25T20:20:59.297Z,44.14
2023-09-25T20:23:26.908Z,44.66
2023-09-25T20:25:54.290Z,43.97
2023-09-25T20:28:21.396Z,44.84
2023-09-25T20:30:48.408Z,44.37
2023-09-25T20:33:15.355Z,44.56
2023-09-25T20:35:42.363Z,44.78
2023-09-25T20:38:09.040Z,43.96
2023-09-25T20:40:35.841Z,44.19
2023-09-25T20:43:02.612Z,44.23
2023-09-25T20:45:29.307Z,44.60
2023-09-25T20:47:57.542Z,45.79
2023-09-25T20:50:28.231Z,45.25
2023-09-25T20:52:56.035Z,46.31
2023-09-25T20:55:23.668Z,45.45
2023-09-25T20:57:51.109Z,45.28
2023-09-25T21:00:18.993Z,46.16
2023-09-25T21:02:45.792Z,46.38
2023-09-25T21:05:13.484Z,46.22
2023-09-25T21:07:40.220Z,46.74
2023-09-25T21:10:07.714Z,46.33
2023-09-25T21:12:34.888Z,47.36
2023-09-25T21:15:01.701Z,47.27
2023-09-25T21:17:29.788Z,47.07
2023-09-25T21:19:56.479Z,47.33
2023-09-25T21:22:23.140Z,47.69
2023-09-25T21:24:52.890Z,48.51
2023-09-25T21:27:19.750Z,48.23
2023-09-25T21:29:46.514Z,48.23
2023-09-25T21:32:14.461Z,48.35
2023-09-25T21:34:41.350Z,49.03
2023-09-25T21:37:08.050Z,49.15
2023-09-25T21:39:34.699Z,48.63
2023-09-25T21:42:01.364Z,49.12
2023-09-25T21:44:30.869Z,49.27
2023-09-25T21:46:58.177Z,49.59
2023-09-25T21:49:24.916Z,49.03
2023-09-25T21:51:51.620Z,49.19
2023-09-25T21:54:18.265Z,49.58
2023-09-25T21:56:44.889Z,49.21
2023-09-25T21:59:11.564Z,48.81
2023-09-25T22:01:38.284Z,49.98
2023-09-25T22:04:05.739Z,49.14
2023-09-25T22:06:33.355Z,50.01
2023-09-25T22:08:59.981Z,48.89
2023-09-25T22:11:26.623Z,51.32
2023-09-25T22:13:55.443Z,49.60
2023-09-25T22:16:23.404Z,49.75
2023-09-25T22:18:50.357Z,50.59
2023-09-25T22:21:17.207Z,49.91
2023-09-25T22:23:44.590Z,49.49
2023-09-25T22:26:12.423Z,50.13
2023-09-25T22:28:44.060Z,49.93
2023-09-25T22:31:18.994Z,51.46
2023-09-25T22:33:47.783Z,50.15
2023-09-25T22:36:14.802Z,51.49
2023-09-25T22:38:41.751Z,50.93
2023-09-25T22:41:08.506Z,51.54
2023-09-25T22:43:35.391Z,51.96
2023-09-25T22:46:02.486Z,52.17
2023-09-25T22:48:31.574Z,52.38
2023-09-25T22:50:58.444Z,52.53
2023-09-25T22:53:25.385Z,52.75
2023-09-25T22:55:52.058Z,53.19
2023-09-25T22:58:18.794Z,52.70
2023-09-25T23:00:51.432Z,52.91
2023-09-25T23:03:18.554Z,53.18
2023-09-25T23:05:45.501Z,53.07
2023-09-25T23:08:12.604Z,53.76
2023-09-25T23:10:39.253Z,53.91
2023-09-25T23:13:05.948Z,55.20
2023-09-25T23:15:32.644Z,55.23
2023-09-25T23:17:59.931Z,55.14
2023-09-25T23:20:28.081Z,56.46
2023-09-25T23:22:58.059Z,55.93
2023-09-25T23:25:27.615Z,57.05
2023-09-25T23:27:54.994Z,56.30
2023-09-25T23:30:23.111Z,56.63
2023-09-25T23:33:13.469Z,57.37
2023-09-25T23:35:42.894Z,57.59
2023-09-25T23:38:09.653Z,58.11
2023-09-25T23:40:36.275Z,57.98
2023-09-25T23:43:03.004Z,59.23
2023-09-25T23:45:29.709Z,59.40
2023-09-25T23:47:56.381Z,58.88
2023-09-25T23:50:23.362Z,59.04
2023-09-25T23:52:54.475Z,58.52
2023-09-25T23:55:21.399Z,58.55
2023-09-25T23:57:48.313Z,58.69
